sensor_id;sensor_type;location;lat;lon;timestamp;P1;durP1;ratioP1;P2;durP2;ratioP2
17059;SDS011;8646;49.716;9.266;2022-08-01T00:00:58;4.47;;;3.27;;
17059;SDS011;8646;49.716;9.266;2022-08-01T00:04:00;5.43;;;3.23;;
17059;SDS011;8646;49.716;9.266;2022-08-01T00:07:03;4.43;;;3.50;;
17059;SDS011;8646;49.716;9.266;2022-08-01T00:10:09;5.50;;;3.60;;
17059;SDS011;8646;49.716;9.266;2022-08-01T00:13:13;5.80;;;3.20;;
17059;SDS011;8646;49.716;9.266;2022-08-01T00:16:16;5.97;;;3.40;;
17059;SDS011;8646;49.716;9.266;2022-08-01T00:19:19;6.67;;;3.47;;
17059;SDS011;8646;49.716;9.266;2022-08-01T00:22:22;6.20;;;3.50;;
17059;SDS011;8646;49.716;9.266;2022-08-01T00:25:26;6.30;;;3.63;;
17059;SDS011;8646;49.716;9.266;2022-08-01T00:28:34;8.13;;;3.60;;
17059;SDS011;8646;49.716;9.266;2022-08-01T00:31:37;4.70;;;3.50;;
17059;SDS011;8646;49.716;9.266;2022-08-01T00:34:40;8.13;;;3.47;;
17059;SDS011;8646;49.716;9.266;2022-08-01T00:37:43;7.90;;;3.90;;
17059;SDS011;8646;49.716;9.266;2022-08-01T00:40:48;5.83;;;3.13;;
17059;SDS011;8646;49.716;9.266;2022-08-01T00:43:52;4.27;;;3.60;;
17059;SDS011;8646;49.716;9.266;2022-08-01T00:46:55;7.37;;;3.30;;
17059;SDS011;8646;49.716;9.266;2022-08-01T00:49:58;6.80;;;4.07;;
17059;SDS011;8646;49.716;9.266;2022-08-01T00:53:01;5.40;;;3.43;;
17059;SDS011;8646;49.716;9.266;2022-08-01T00:56:06;4.60;;;3.70;;
17059;SDS011;8646;49.716;9.266;2022-08-01T00:59:09;9.27;;;3.80;;
17059;SDS011;8646;49.716;9.266;2022-08-01T01:02:15;7.97;;;3.60;;
17059;SDS011;8646;49.716;9.266;2022-08-01T01:05:19;10.70;;;3.47;;
17059;SDS011;8646;49.716;9.266;2022-08-01T01:08:24;4.50;;;3.47;;
17059;SDS011;8646;49.716;9.266;2022-08-01T01:11:35;4.10;;;3.50;;
17059;SDS011;8646;49.716;9.266;2022-08-01T01:14:55;11.40;;;3.60;;
17059;SDS011;8646;49.716;9.266;2022-08-01T01:18:03;4.97;;;3.50;;
17059;SDS011;8646;49.716;9.266;2022-08-01T01:21:13;4.23;;;3.30;;
17059;SDS011;8646;49.716;9.266;2022-08-01T01:24:50;4.23;;;3.43;;
17059;SDS011;8646;49.716;9.266;2022-08-01T01:28:13;7.03;;;3.83;;
17059;SDS011;8646;49.716;9.266;2022-08-01T01:31:24;8.83;;;4.10;;
17059;SDS011;8646;49.716;9.266;2022-08-01T01:34:28;8.43;;;3.93;;
17059;SDS011;8646;49.716;9.266;2022-08-01T01:37:34;7.70;;;4.23;;
17059;SDS011;8646;49.716;9.266;2022-08-01T01:40:40;5.23;;;3.87;;
17059;SDS011;8646;49.716;9.266;2022-08-01T01:43:44;7.57;;;4.13;;
17059;SDS011;8646;49.716;9.266;2022-08-01T01:46:50;6.30;;;4.47;;
17059;SDS011;8646;49.716;9.266;2022-08-01T01:49:54;7.70;;;4.50;;
17059;SDS011;8646;49.716;9.266;2022-08-01T01:52:59;5.37;;;4.33;;
17059;SDS011;8646;49.716;9.266;2022-08-01T01:56:05;7.77;;;4.40;;
17059;SDS011;8646;49.716;9.266;2022-08-01T01:59:08;7.00;;;4.30;;
17059;SDS011;8646;49.716;9.266;2022-08-01T02:02:12;6.33;;;4.50;;
17059;SDS011;8646;49.716;9.266;2022-08-01T02:05:17;15.17;;;4.33;;
17059;SDS011;8646;49.716;9.266;2022-08-01T02:08:21;8.60;;;4.20;;
17059;SDS011;8646;49.716;9.266;2022-08-01T02:11:26;6.83;;;4.17;;
17059;SDS011;8646;49.716;9.266;2022-08-01T02:14:31;10.13;;;4.40;;
17059;SDS011;8646;49.716;9.266;2022-08-01T02:17:39;5.43;;;4.00;;
17059;SDS011;8646;49.716;9.266;2022-08-01T02:20:49;10.67;;;4.70;;
17059;SDS011;8646;49.716;9.266;2022-08-01T02:23:55;10.80;;;4.70;;
17059;SDS011;8646;49.716;9.266;2022-08-01T02:27:07;6.17;;;4.60;;
17059;SDS011;8646;49.716;9.266;2022-08-01T02:30:12;6.57;;;4.20;;
17059;SDS011;8646;49.716;9.266;2022-08-01T02:33:18;6.10;;;4.40;;
17059;SDS011;8646;49.716;9.266;2022-08-01T02:36:23;7.13;;;4.40;;
17059;SDS011;8646;49.716;9.266;2022-08-01T02:39:33;8.10;;;3.90;;
17059;SDS011;8646;49.716;9.266;2022-08-01T02:42:38;5.30;;;4.00;;
17059;SDS011;8646;49.716;9.266;2022-08-01T02:45:50;5.47;;;4.40;;
17059;SDS011;8646;49.716;9.266;2022-08-01T02:48:58;5.17;;;4.03;;
17059;SDS011;8646;49.716;9.266;2022-08-01T02:52:05;6.47;;;4.73;;
17059;SDS011;8646;49.716;9.266;2022-08-01T02:55:12;5.93;;;4.27;;
17059;SDS011;8646;49.716;9.266;2022-08-01T02:58:17;9.90;;;4.50;;
17059;SDS011;8646;49.716;9.266;2022-08-01T03:01:30;4.73;;;4.23;;
17059;SDS011;8646;49.716;9.266;2022-08-01T03:04:38;4.93;;;4.07;;
17059;SDS011;8646;49.716;9.266;2022-08-01T03:07:42;6.00;;;4.33;;
17059;SDS011;8646;49.716;9.266;2022-08-01T03:10:49;5.77;;;4.20;;
17059;SDS011;8646;49.716;9.266;2022-08-01T03:13:55;7.70;;;4.03;;
17059;SDS011;8646;49.716;9.266;2022-08-01T03:16:58;5.37;;;3.90;;
17059;SDS011;8646;49.716;9.266;2022-08-01T03:20:05;7.07;;;3.90;;
17059;SDS011;8646;49.716;9.266;2022-08-01T03:23:11;4.83;;;3.90;;
17059;SDS011;8646;49.716;9.266;2022-08-01T03:26:16;7.50;;;4.30;;
17059;SDS011;8646;49.716;9.266;2022-08-01T03:29:21;5.40;;;4.30;;
17059;SDS011;8646;49.716;9.266;2022-08-01T03:32:26;10.23;;;5.30;;
17059;SDS011;8646;49.716;9.266;2022-08-01T03:35:33;7.47;;;4.63;;
17059;SDS011;8646;49.716;9.266;2022-08-01T03:38:39;8.40;;;4.63;;
17059;SDS011;8646;49.716;9.266;2022-08-01T03:41:46;8.20;;;4.60;;
17059;SDS011;8646;49.716;9.266;2022-08-01T03:44:58;6.43;;;4.67;;
17059;SDS011;8646;49.716;9.266;2022-08-01T03:48:08;6.07;;;4.83;;
17059;SDS011;8646;49.716;9.266;2022-08-01T03:51:15;9.87;;;4.30;;
17059;SDS011;8646;49.716;9.266;2022-08-01T03:54:21;7.43;;;4.10;;
17059;SDS011;8646;49.716;9.266;2022-08-01T03:57:27;7.53;;;4.37;;
17059;SDS011;8646;49.716;9.266;2022-08-01T04:00:37;4.80;;;3.53;;
17059;SDS011;8646;49.716;9.266;2022-08-01T04:03:41;4.70;;;4.17;;
17059;SDS011;8646;49.716;9.266;2022-08-01T04:06:46;8.30;;;4.37;;
17059;SDS011;8646;49.716;9.266;2022-08-01T04:09:52;9.50;;;4.00;;
17059;SDS011;8646;49.716;9.266;2022-08-01T04:12:55;9.50;;;4.87;;
17059;SDS011;8646;49.716;9.266;2022-08-01T04:15:58;6.37;;;4.10;;
17059;SDS011;8646;49.716;9.266;2022-08-01T04:19:01;4.17;;;3.77;;
17059;SDS011;8646;49.716;9.266;2022-08-01T04:22:06;5.83;;;4.00;;
17059;SDS011;8646;49.716;9.266;2022-08-01T04:25:11;6.70;;;3.90;;
17059;SDS011;8646;49.716;9.266;2022-08-01T04:28:18;4.80;;;4.07;;
17059;SDS011;8646;49.716;9.266;2022-08-01T04:31:24;7.73;;;3.97;;
17059;SDS011;8646;49.716;9.266;2022-08-01T04:34:30;8.67;;;4.37;;
17059;SDS011;8646;49.716;9.266;2022-08-01T04:37:37;6.37;;;4.00;;
17059;SDS011;8646;49.716;9.266;2022-08-01T04:40:43;8.90;;;3.90;;
17059;SDS011;8646;49.716;9.266;2022-08-01T04:43:48;6.93;;;3.97;;
17059;SDS011;8646;49.716;9.266;2022-08-01T04:46:52;6.67;;;3.77;;
17059;SDS011;8646;49.716;9.266;2022-08-01T04:49:57;6.60;;;3.97;;
17059;SDS011;8646;49.716;9.266;2022-08-01T04:53:02;4.87;;;3.30;;
17059;SDS011;8646;49.716;9.266;2022-08-01T04:56:06;4.60;;;3.60;;
17059;SDS011;8646;49.716;9.266;2022-08-01T04:59:09;5.60;;;3.70;;
17059;SDS011;8646;49.716;9.266;2022-08-01T05:02:29;5.07;;;3.87;;
17059;SDS011;8646;49.716;9.266;2022-08-01T05:05:32;6.40;;;3.90;;
17059;SDS011;8646;49.716;9.266;2022-08-01T05:08:37;7.20;;;4.67;;
17059;SDS011;8646;49.716;9.266;2022-08-01T05:11:39;6.93;;;4.10;;
17059;SDS011;8646;49.716;9.266;2022-08-01T05:14:43;4.37;;;3.83;;
17059;SDS011;8646;49.716;9.266;2022-08-01T05:17:47;4.53;;;3.73;;
17059;SDS011;8646;49.716;9.266;2022-08-01T05:20:50;4.20;;;3.43;;
17059;SDS011;8646;49.716;9.266;2022-08-01T05:23:54;6.07;;;3.50;;
17059;SDS011;8646;49.716;9.266;2022-08-01T05:26:57;8.77;;;4.20;;
17059;SDS011;8646;49.716;9.266;2022-08-01T05:30:03;4.30;;;3.67;;
17059;SDS011;8646;49.716;9.266;2022-08-01T05:33:06;7.20;;;3.67;;
17059;SDS011;8646;49.716;9.266;2022-08-01T05:36:09;4.40;;;3.47;;
17059;SDS011;8646;49.716;9.266;2022-08-01T05:39:13;6.67;;;3.00;;
17059;SDS011;8646;49.716;9.266;2022-08-01T05:42:16;5.60;;;3.43;;
17059;SDS011;8646;49.716;9.266;2022-08-01T05:45:20;4.93;;;3.30;;
17059;SDS011;8646;49.716;9.266;2022-08-01T05:48:23;7.83;;;3.33;;
17059;SDS011;8646;49.716;9.266;2022-08-01T05:51:26;7.17;;;3.47;;
17059;SDS011;8646;49.716;9.266;2022-08-01T05:54:30;5.07;;;3.60;;
17059;SDS011;8646;49.716;9.266;2022-08-01T05:57:33;7.73;;;3.63;;
17059;SDS011;8646;49.716;9.266;2022-08-01T06:00:39;3.87;;;3.10;;
17059;SDS011;8646;49.716;9.266;2022-08-01T06:03:42;5.47;;;3.20;;
17059;SDS011;8646;49.716;9.266;2022-08-01T06:06:45;6.30;;;3.20;;
17059;SDS011;8646;49.716;9.266;2022-08-01T06:09:49;4.97;;;3.63;;
17059;SDS011;8646;49.716;9.266;2022-08-01T06:12:52;7.57;;;3.20;;
17059;SDS011;8646;49.716;9.266;2022-08-01T06:15:55;5.20;;;3.23;;
17059;SDS011;8646;49.716;9.266;2022-08-01T06:18:58;6.33;;;3.10;;
17059;SDS011;8646;49.716;9.266;2022-08-01T06:22:01;4.43;;;3.20;;
17059;SDS011;8646;49.716;9.266;2022-08-01T06:25:07;8.93;;;3.43;;
17059;SDS011;8646;49.716;9.266;2022-08-01T06:28:11;9.47;;;3.20;;
17059;SDS011;8646;49.716;9.266;2022-08-01T06:31:14;6.90;;;3.17;;
17059;SDS011;8646;49.716;9.266;2022-08-01T06:34:17;5.57;;;3.17;;
17059;SDS011;8646;49.716;9.266;2022-08-01T06:37:20;5.17;;;2.73;;
17059;SDS011;8646;49.716;9.266;2022-08-01T06:40:24;4.33;;;3.00;;
17059;SDS011;8646;49.716;9.266;2022-08-01T06:43:27;5.47;;;3.30;;
17059;SDS011;8646;49.716;9.266;2022-08-01T06:46:30;5.70;;;2.77;;
17059;SDS011;8646;49.716;9.266;2022-08-01T06:49:35;7.87;;;3.20;;
17059;SDS011;8646;49.716;9.266;2022-08-01T06:52:38;4.17;;;2.90;;
17059;SDS011;8646;49.716;9.266;2022-08-01T06:55:42;7.17;;;3.07;;
17059;SDS011;8646;49.716;9.266;2022-08-01T06:58:45;7.63;;;2.90;;
17059;SDS011;8646;49.716;9.266;2022-08-01T07:01:48;5.40;;;2.60;;
17059;SDS011;8646;49.716;9.266;2022-08-01T07:04:51;5.20;;;2.80;;
17059;SDS011;8646;49.716;9.266;2022-08-01T07:07:54;5.10;;;2.70;;
17059;SDS011;8646;49.716;9.266;2022-08-01T07:10:58;6.37;;;2.90;;
17059;SDS011;8646;49.716;9.266;2022-08-01T07:14:01;4.43;;;2.67;;
17059;SDS011;8646;49.716;9.266;2022-08-01T07:17:05;5.63;;;2.67;;
17059;SDS011;8646;49.716;9.266;2022-08-01T07:20:08;4.70;;;2.20;;
17059;SDS011;8646;49.716;9.266;2022-08-01T07:23:16;4.63;;;2.23;;
17059;SDS011;8646;49.716;9.266;2022-08-01T07:26:34;5.10;;;2.00;;
17059;SDS011;8646;49.716;9.266;2022-08-01T07:29:37;5.17;;;1.50;;
17059;SDS011;8646;49.716;9.266;2022-08-01T07:32:40;2.63;;;1.50;;
17059;SDS011;8646;49.716;9.266;2022-08-01T07:35:43;5.30;;;1.30;;
17059;SDS011;8646;49.716;9.266;2022-08-01T07:38:46;3.60;;;1.03;;
17059;SDS011;8646;49.716;9.266;2022-08-01T07:41:51;2.10;;;1.07;;
17059;SDS011;8646;49.716;9.266;2022-08-01T07:45:08;1.60;;;1.10;;
17059;SDS011;8646;49.716;9.266;2022-08-01T07:48:12;8.67;;;1.10;;
17059;SDS011;8646;49.716;9.266;2022-08-01T07:51:15;1.93;;;1.20;;
17059;SDS011;8646;49.716;9.266;2022-08-01T07:54:17;1.50;;;0.97;;
17059;SDS011;8646;49.716;9.266;2022-08-01T07:57:34;3.00;;;1.03;;
17059;SDS011;8646;49.716;9.266;2022-08-01T08:00:37;4.57;;;1.03;;
17059;SDS011;8646;49.716;9.266;2022-08-01T08:03:40;2.33;;;0.80;;
17059;SDS011;8646;49.716;9.266;2022-08-01T08:06:43;1.30;;;1.20;;
17059;SDS011;8646;49.716;9.266;2022-08-01T08:09:48;2.40;;;1.30;;
17059;SDS011;8646;49.716;9.266;2022-08-01T08:12:53;1.63;;;1.00;;
17059;SDS011;8646;49.716;9.266;2022-08-01T08:15:56;2.43;;;1.13;;
17059;SDS011;8646;49.716;9.266;2022-08-01T08:19:00;2.70;;;1.00;;
17059;SDS011;8646;49.716;9.266;2022-08-01T08:22:03;1.20;;;0.77;;
17059;SDS011;8646;49.716;9.266;2022-08-01T08:25:07;2.97;;;1.03;;
17059;SDS011;8646;49.716;9.266;2022-08-01T08:28:13;1.50;;;1.20;;
17059;SDS011;8646;49.716;9.266;2022-08-01T08:31:16;3.90;;;1.43;;
17059;SDS011;8646;49.716;9.266;2022-08-01T08:34:39;4.13;;;1.33;;
17059;SDS011;8646;49.716;9.266;2022-08-01T08:37:42;4.00;;;1.30;;
17059;SDS011;8646;49.716;9.266;2022-08-01T08:40:48;2.40;;;1.23;;
17059;SDS011;8646;49.716;9.266;2022-08-01T08:43:52;3.13;;;1.40;;
17059;SDS011;8646;49.716;9.266;2022-08-01T08:46:58;1.50;;;1.03;;
17059;SDS011;8646;49.716;9.266;2022-08-01T08:50:09;1.73;;;1.20;;
17059;SDS011;8646;49.716;9.266;2022-08-01T08:53:13;4.23;;;1.43;;
17059;SDS011;8646;49.716;9.266;2022-08-01T08:56:19;2.33;;;1.17;;
17059;SDS011;8646;49.716;9.266;2022-08-01T08:59:24;2.40;;;1.40;;
17059;SDS011;8646;49.716;9.266;2022-08-01T09:02:29;1.60;;;1.30;;
17059;SDS011;8646;49.716;9.266;2022-08-01T09:05:32;2.07;;;1.30;;
17059;SDS011;8646;49.716;9.266;2022-08-01T09:08:40;2.60;;;1.20;;
17059;SDS011;8646;49.716;9.266;2022-08-01T09:11:43;1.20;;;1.10;;
17059;SDS011;8646;49.716;9.266;2022-08-01T09:14:59;2.13;;;1.37;;
17059;SDS011;8646;49.716;9.266;2022-08-01T09:18:02;2.43;;;1.30;;
17059;SDS011;8646;49.716;9.266;2022-08-01T09:21:09;3.27;;;1.20;;
17059;SDS011;8646;49.716;9.266;2022-08-01T09:24:15;1.57;;;1.27;;
17059;SDS011;8646;49.716;9.266;2022-08-01T09:27:31;3.17;;;1.50;;
17059;SDS011;8646;49.716;9.266;2022-08-01T09:30:37;2.03;;;1.67;;
17059;SDS011;8646;49.716;9.266;2022-08-01T09:33:50;2.70;;;1.20;;
17059;SDS011;8646;49.716;9.266;2022-08-01T09:36:56;4.27;;;1.60;;
17059;SDS011;8646;49.716;9.266;2022-08-01T09:40:01;1.80;;;1.20;;
17059;SDS011;8646;49.716;9.266;2022-08-01T09:43:10;1.60;;;1.37;;
17059;SDS011;8646;49.716;9.266;2022-08-01T09:46:16;1.17;;;1.07;;
17059;SDS011;8646;49.716;9.266;2022-08-01T09:49:28;2.27;;;1.20;;
17059;SDS011;8646;49.716;9.266;2022-08-01T09:52:53;2.03;;;1.30;;
17059;SDS011;8646;49.716;9.266;2022-08-01T09:56:08;2.00;;;1.20;;
17059;SDS011;8646;49.716;9.266;2022-08-01T09:59:12;2.27;;;1.13;;
17059;SDS011;8646;49.716;9.266;2022-08-01T10:02:27;2.10;;;1.17;;
17059;SDS011;8646;49.716;9.266;2022-08-01T10:05:34;3.55;;;1.33;;
17059;SDS011;8646;49.716;9.266;2022-08-01T10:08:44;3.25;;;1.50;;
17059;SDS011;8646;49.716;9.266;2022-08-01T10:11:48;2.17;;;1.53;;
17059;SDS011;8646;49.716;9.266;2022-08-01T10:14:51;4.72;;;1.77;;
17059;SDS011;8646;49.716;9.266;2022-08-01T10:17:59;2.17;;;1.50;;
17059;SDS011;8646;49.716;9.266;2022-08-01T10:21:03;5.07;;;1.50;;
17059;SDS011;8646;49.716;9.266;2022-08-01T10:24:11;2.37;;;0.97;;
17059;SDS011;8646;49.716;9.266;2022-08-01T10:27:19;4.50;;;1.10;;
17059;SDS011;8646;49.716;9.266;2022-08-01T10:30:39;2.40;;;1.30;;
17059;SDS011;8646;49.716;9.266;2022-08-01T10:33:46;2.90;;;1.37;;
17059;SDS011;8646;49.716;9.266;2022-08-01T10:36:53;4.43;;;1.40;;
17059;SDS011;8646;49.716;9.266;2022-08-01T10:39:56;2.07;;;1.47;;
17059;SDS011;8646;49.716;9.266;2022-08-01T10:43:19;1.17;;;1.08;;
17059;SDS011;8646;49.716;9.266;2022-08-01T10:46:22;3.47;;;1.10;;
17059;SDS011;8646;49.716;9.266;2022-08-01T10:49:29;1.20;;;1.10;;
17059;SDS011;8646;49.716;9.266;2022-08-01T10:52:36;1.45;;;1.10;;
17059;SDS011;8646;49.716;9.266;2022-08-01T10:55:50;2.63;;;1.40;;
17059;SDS011;8646;49.716;9.266;2022-08-01T10:59:00;1.42;;;1.30;;
17059;SDS011;8646;49.716;9.266;2022-08-01T11:02:11;1.73;;;1.50;;
17059;SDS011;8646;49.716;9.266;2022-08-01T11:05:34;2.37;;;1.33;;
17059;SDS011;8646;49.716;9.266;2022-08-01T11:08:38;3.78;;;1.30;;
17059;SDS011;8646;49.716;9.266;2022-08-01T11:11:56;2.90;;;1.25;;
17059;SDS011;8646;49.716;9.266;2022-08-01T11:15:17;3.63;;;1.27;;
17059;SDS011;8646;49.716;9.266;2022-08-01T11:18:31;3.57;;;1.30;;
17059;SDS011;8646;49.716;9.266;2022-08-01T11:21:58;2.00;;;1.17;;
17059;SDS011;8646;49.716;9.266;2022-08-01T11:25:03;8.77;;;1.50;;
17059;SDS011;8646;49.716;9.266;2022-08-01T11:28:18;3.22;;;1.20;;
17059;SDS011;8646;49.716;9.266;2022-08-01T11:31:35;1.42;;;1.25;;
17059;SDS011;8646;49.716;9.266;2022-08-01T11:34:54;3.40;;;1.20;;
17059;SDS011;8646;49.716;9.266;2022-08-01T11:38:03;3.47;;;1.17;;
17059;SDS011;8646;49.716;9.266;2022-08-01T11:41:26;2.05;;;1.00;;
17059;SDS011;8646;49.716;9.266;2022-08-01T11:44:47;1.45;;;1.20;;
17059;SDS011;8646;49.716;9.266;2022-08-01T11:47:51;2.05;;;1.40;;
17059;SDS011;8646;49.716;9.266;2022-08-01T11:50:55;1.27;;;1.00;;
17059;SDS011;8646;49.716;9.266;2022-08-01T11:54:04;3.08;;;1.30;;
17059;SDS011;8646;49.716;9.266;2022-08-01T11:57:08;1.60;;;1.15;;
17059;SDS011;8646;49.716;9.266;2022-08-01T12:00:12;2.40;;;1.10;;
17059;SDS011;8646;49.716;9.266;2022-08-01T12:03:23;2.80;;;1.30;;
17059;SDS011;8646;49.716;9.266;2022-08-01T12:06:34;3.55;;;1.27;;
17059;SDS011;8646;49.716;9.266;2022-08-01T12:09:38;1.33;;;1.10;;
17059;SDS011;8646;49.716;9.266;2022-08-01T12:12:42;2.15;;;1.25;;
17059;SDS011;8646;49.716;9.266;2022-08-01T12:15:46;5.22;;;1.20;;
17059;SDS011;8646;49.716;9.266;2022-08-01T12:18:57;1.25;;;1.00;;
17059;SDS011;8646;49.716;9.266;2022-08-01T12:22:07;3.03;;;1.25;;
17059;SDS011;8646;49.716;9.266;2022-08-01T12:25:13;1.38;;;1.20;;
17059;SDS011;8646;49.716;9.266;2022-08-01T12:28:17;1.30;;;1.20;;
17059;SDS011;8646;49.716;9.266;2022-08-01T12:31:30;3.45;;;1.40;;
17059;SDS011;8646;49.716;9.266;2022-08-01T12:34:33;2.25;;;1.48;;
17059;SDS011;8646;49.716;9.266;2022-08-01T12:37:37;2.35;;;1.23;;
17059;SDS011;8646;49.716;9.266;2022-08-01T12:40:44;1.88;;;1.33;;
17059;SDS011;8646;49.716;9.266;2022-08-01T12:43:54;1.75;;;1.33;;
17059;SDS011;8646;49.716;9.266;2022-08-01T12:46:57;3.17;;;1.38;;
17059;SDS011;8646;49.716;9.266;2022-08-01T12:50:00;1.65;;;1.20;;
17059;SDS011;8646;49.716;9.266;2022-08-01T12:53:03;1.92;;;1.15;;
17059;SDS011;8646;49.716;9.266;2022-08-01T12:56:09;2.10;;;1.20;;
17059;SDS011;8646;49.716;9.266;2022-08-01T12:59:19;1.15;;;0.93;;
17059;SDS011;8646;49.716;9.266;2022-08-01T13:02:30;1.48;;;1.00;;
17059;SDS011;8646;49.716;9.266;2022-08-01T13:05:41;7.03;;;1.10;;
17059;SDS011;8646;49.716;9.266;2022-08-01T13:08:46;1.48;;;0.90;;
17059;SDS011;8646;49.716;9.266;2022-08-01T13:11:50;1.67;;;1.30;;
17059;SDS011;8646;49.716;9.266;2022-08-01T13:15:17;1.10;;;1.00;;
17059;SDS011;8646;49.716;9.266;2022-08-01T13:18:25;1.15;;;1.05;;
17059;SDS011;8646;49.716;9.266;2022-08-01T13:21:29;3.75;;;1.20;;
17059;SDS011;8646;49.716;9.266;2022-08-01T13:24:53;1.13;;;0.90;;
17059;SDS011;8646;49.716;9.266;2022-08-01T13:28:16;1.85;;;1.20;;
17059;SDS011;8646;49.716;9.266;2022-08-01T13:31:20;1.05;;;0.90;;
17059;SDS011;8646;49.716;9.266;2022-08-01T13:34:34;1.23;;;1.02;;
17059;SDS011;8646;49.716;9.266;2022-08-01T13:37:39;1.45;;;1.10;;
17059;SDS011;8646;49.716;9.266;2022-08-01T13:40:44;2.03;;;1.23;;
17059;SDS011;8646;49.716;9.266;2022-08-01T13:43:48;2.25;;;1.30;;
17059;SDS011;8646;49.716;9.266;2022-08-01T13:46:59;1.83;;;1.20;;
17059;SDS011;8646;49.716;9.266;2022-08-01T13:50:16;1.13;;;1.02;;
17059;SDS011;8646;49.716;9.266;2022-08-01T13:53:22;2.05;;;1.20;;
17059;SDS011;8646;49.716;9.266;2022-08-01T13:56:25;2.42;;;1.17;;
17059;SDS011;8646;49.716;9.266;2022-08-01T13:59:30;1.30;;;1.02;;
17059;SDS011;8646;49.716;9.266;2022-08-01T14:02:33;1.30;;;1.20;;
17059;SDS011;8646;49.716;9.266;2022-08-01T14:05:37;1.45;;;0.98;;
17059;SDS011;8646;49.716;9.266;2022-08-01T14:08:40;1.30;;;1.20;;
17059;SDS011;8646;49.716;9.266;2022-08-01T14:11:46;2.65;;;1.30;;
17059;SDS011;8646;49.716;9.266;2022-08-01T14:14:50;1.25;;;0.95;;
17059;SDS011;8646;49.716;9.266;2022-08-01T14:17:53;6.05;;;1.05;;
17059;SDS011;8646;49.716;9.266;2022-08-01T14:20:56;2.00;;;1.17;;
17059;SDS011;8646;49.716;9.266;2022-08-01T14:24:06;2.65;;;1.10;;
17059;SDS011;8646;49.716;9.266;2022-08-01T14:27:09;1.63;;;1.00;;
17059;SDS011;8646;49.716;9.266;2022-08-01T14:30:14;1.33;;;1.05;;
17059;SDS011;8646;49.716;9.266;2022-08-01T14:33:16;1.10;;;1.00;;
17059;SDS011;8646;49.716;9.266;2022-08-01T14:36:19;1.10;;;1.00;;
17059;SDS011;8646;49.716;9.266;2022-08-01T14:39:31;1.00;;;0.90;;
17059;SDS011;8646;49.716;9.266;2022-08-01T14:42:35;1.75;;;0.93;;
17059;SDS011;8646;49.716;9.266;2022-08-01T14:45:39;0.93;;;0.73;;
17059;SDS011;8646;49.716;9.266;2022-08-01T14:48:42;2.05;;;1.00;;
17059;SDS011;8646;49.716;9.266;2022-08-01T14:51:45;4.50;;;0.80;;
17059;SDS011;8646;49.716;9.266;2022-08-01T14:54:48;2.40;;;0.80;;
17059;SDS011;8646;49.716;9.266;2022-08-01T14:57:51;1.92;;;0.80;;
17059;SDS011;8646;49.716;9.266;2022-08-01T15:00:55;0.80;;;0.80;;
17059;SDS011;8646;49.716;9.266;2022-08-01T15:03:59;1.45;;;0.90;;
17059;SDS011;8646;49.716;9.266;2022-08-01T15:07:04;1.80;;;0.85;;
17059;SDS011;8646;49.716;9.266;2022-08-01T15:10:07;1.00;;;0.90;;
17059;SDS011;8646;49.716;9.266;2022-08-01T15:13:10;1.30;;;0.90;;
17059;SDS011;8646;49.716;9.266;2022-08-01T15:16:14;0.80;;;0.70;;
17059;SDS011;8646;49.716;9.266;2022-08-01T15:19:17;2.78;;;0.90;;
17059;SDS011;8646;49.716;9.266;2022-08-01T15:22:20;1.17;;;0.65;;
17059;SDS011;8646;49.716;9.266;2022-08-01T15:25:24;1.90;;;0.82;;
17059;SDS011;8646;49.716;9.266;2022-08-01T15:28:42;0.75;;;0.75;;
17059;SDS011;8646;49.716;9.266;2022-08-01T15:31:46;2.10;;;0.80;;
17059;SDS011;8646;49.716;9.266;2022-08-01T15:34:49;0.90;;;0.80;;
17059;SDS011;8646;49.716;9.266;2022-08-01T15:37:52;0.68;;;0.68;;
17059;SDS011;8646;49.716;9.266;2022-08-01T15:40:54;1.20;;;0.80;;
17059;SDS011;8646;49.716;9.266;2022-08-01T15:43:58;0.88;;;0.70;;
17059;SDS011;8646;49.716;9.266;2022-08-01T15:47:02;1.33;;;0.80;;
17059;SDS011;8646;49.716;9.266;2022-08-01T15:50:06;1.25;;;0.90;;
17059;SDS011;8646;49.716;9.266;2022-08-01T15:53:10;2.78;;;0.82;;
17059;SDS011;8646;49.716;9.266;2022-08-01T15:56:13;2.17;;;1.08;;
17059;SDS011;8646;49.716;9.266;2022-08-01T15:59:16;1.33;;;0.90;;
17059;SDS011;8646;49.716;9.266;2022-08-01T16:02:24;1.02;;;0.90;;
17059;SDS011;8646;49.716;9.266;2022-08-01T16:05:27;1.85;;;1.00;;
17059;SDS011;8646;49.716;9.266;2022-08-01T16:08:31;1.50;;;0.95;;
17059;SDS011;8646;49.716;9.266;2022-08-01T16:11:34;6.07;;;0.90;;
17059;SDS011;8646;49.716;9.266;2022-08-01T16:14:51;1.52;;;1.08;;
17059;SDS011;8646;49.716;9.266;2022-08-01T16:17:55;2.65;;;0.90;;
17059;SDS011;8646;49.716;9.266;2022-08-01T16:21:02;1.10;;;1.00;;
17059;SDS011;8646;49.716;9.266;2022-08-01T16:24:08;1.95;;;1.10;;
17059;SDS011;8646;49.716;9.266;2022-08-01T16:27:11;0.98;;;0.80;;
17059;SDS011;8646;49.716;9.266;2022-08-01T16:30:14;1.02;;;1.00;;
17059;SDS011;8646;49.716;9.266;2022-08-01T16:33:18;1.10;;;1.00;;
17059;SDS011;8646;49.716;9.266;2022-08-01T16:36:41;1.42;;;1.00;;
17059;SDS011;8646;49.716;9.266;2022-08-01T16:39:44;1.60;;;1.00;;
17059;SDS011;8646;49.716;9.266;2022-08-01T16:42:47;1.05;;;0.90;;
17059;SDS011;8646;49.716;9.266;2022-08-01T16:45:51;1.70;;;1.10;;
17059;SDS011;8646;49.716;9.266;2022-08-01T16:48:55;1.50;;;1.20;;
17059;SDS011;8646;49.716;9.266;2022-08-01T16:51:58;4.68;;;1.20;;
17059;SDS011;8646;49.716;9.266;2022-08-01T16:55:02;1.65;;;1.10;;
17059;SDS011;8646;49.716;9.266;2022-08-01T16:58:06;3.55;;;1.23;;
17059;SDS011;8646;49.716;9.266;2022-08-01T17:01:12;1.38;;;1.20;;
17059;SDS011;8646;49.716;9.266;2022-08-01T17:04:36;1.75;;;1.20;;
17059;SDS011;8646;49.716;9.266;2022-08-01T17:07:39;2.00;;;1.42;;
17059;SDS011;8646;49.716;9.266;2022-08-01T17:10:42;1.92;;;1.38;;
17059;SDS011;8646;49.716;9.266;2022-08-01T17:13:46;1.63;;;1.20;;
17059;SDS011;8646;49.716;9.266;2022-08-01T17:16:49;3.15;;;1.13;;
17059;SDS011;8646;49.716;9.266;2022-08-01T17:19:53;6.38;;;1.42;;
17059;SDS011;8646;49.716;9.266;2022-08-01T17:22:56;2.90;;;1.48;;
17059;SDS011;8646;49.716;9.266;2022-08-01T17:26:00;2.00;;;1.30;;
17059;SDS011;8646;49.716;9.266;2022-08-01T17:29:03;3.45;;;1.75;;
17059;SDS011;8646;49.716;9.266;2022-08-01T17:32:06;3.75;;;1.75;;
17059;SDS011;8646;49.716;9.266;2022-08-01T17:35:12;3.80;;;1.80;;
17059;SDS011;8646;49.716;9.266;2022-08-01T17:38:16;4.03;;;1.60;;
17059;SDS011;8646;49.716;9.266;2022-08-01T17:41:20;6.68;;;1.77;;
17059;SDS011;8646;49.716;9.266;2022-08-01T17:44:23;3.50;;;1.97;;
17059;SDS011;8646;49.716;9.266;2022-08-01T17:47:28;3.13;;;1.70;;
17059;SDS011;8646;49.716;9.266;2022-08-01T17:50:52;2.10;;;1.90;;
17059;SDS011;8646;49.716;9.266;2022-08-01T17:53:55;6.77;;;2.30;;
17059;SDS011;8646;49.716;9.266;2022-08-01T17:56:59;2.17;;;1.70;;
17059;SDS011;8646;49.716;9.266;2022-08-01T18:00:02;2.63;;;1.80;;
17059;SDS011;8646;49.716;9.266;2022-08-01T18:03:06;2.50;;;1.80;;
17059;SDS011;8646;49.716;9.266;2022-08-01T18:06:13;4.50;;;1.87;;
17059;SDS011;8646;49.716;9.266;2022-08-01T18:09:19;4.83;;;1.90;;
17059;SDS011;8646;49.716;9.266;2022-08-01T18:12:23;3.50;;;1.80;;
17059;SDS011;8646;49.716;9.266;2022-08-01T18:15:26;4.97;;;2.07;;
17059;SDS011;8646;49.716;9.266;2022-08-01T18:18:34;3.83;;;2.00;;
17059;SDS011;8646;49.716;9.266;2022-08-01T18:21:40;5.07;;;2.07;;
17059;SDS011;8646;49.716;9.266;2022-08-01T18:24:43;2.70;;;1.93;;
17059;SDS011;8646;49.716;9.266;2022-08-01T18:27:46;4.20;;;1.87;;
17059;SDS011;8646;49.716;9.266;2022-08-01T18:31:09;3.60;;;1.80;;
17059;SDS011;8646;49.716;9.266;2022-08-01T18:34:13;6.00;;;1.90;;
17059;SDS011;8646;49.716;9.266;2022-08-01T18:37:17;4.87;;;2.20;;
17059;SDS011;8646;49.716;9.266;2022-08-01T18:40:24;3.00;;;2.13;;
17059;SDS011;8646;49.716;9.266;2022-08-01T18:43:27;4.20;;;2.20;;
17059;SDS011;8646;49.716;9.266;2022-08-01T18:46:31;2.90;;;2.07;;
17059;SDS011;8646;49.716;9.266;2022-08-01T18:49:34;2.87;;;2.00;;
17059;SDS011;8646;49.716;9.266;2022-08-01T18:52:38;3.73;;;2.00;;
17059;SDS011;8646;49.716;9.266;2022-08-01T18:55:43;4.33;;;2.10;;
17059;SDS011;8646;49.716;9.266;2022-08-01T18:58:46;3.77;;;2.13;;